Central Il Rgnl Arpt at Bloomington-Normal Airport
KBMI : now visible

Airfield :











YOU CAN JOIN US ON...

 
LOGIN :

Register | Disclaimer

   EN    FR    IT 

 









Legend :    VFR   Marginal VFR   IFR   Intensive IFR   Very Intensive IFR
Visi :
Ceiling :
>= 8 km
>= 3000ft
5 to 8 km
1000 to 3000 ft
1500m to 5 km
500 to 1000 ft
800 to 1500m
200 to 500 ft
< 800m
< 200 ft
Symbols :   Thunderstorms  Fog  Heavy snow  Heavy precipitations  Wind > 20 kt






- Airport Elevation : 871 ft
- IATA code : BMI


KBMI - Central Il Rgnl Arpt at Bloomington-Normal

CURRENT METAR :
  • 280256Z 35008KT 10SM OVC027 04/03 A2984 RMK AO2 SLP107 T00440028 53014

EXPIRED METARs :
  • 280156Z 34009KT 10SM OVC023 04/03 A2982 RMK AO2 SLP103 T00440028
  • 272156Z 31014G20KT 10SM OVC015 06/03 A2969 RMK AO2 SLP056 T00610033

TAF KBMI
Valid from the 28 at 02:00 until the 29 at 00:00 UTC


280209Z 2802/2824 34009KT P6SM BKN022 BKN040
FM280600 VRB03KT P6SM BKN120
FM281700 19008KT P6SM SCT250
KZAU FIR / North America



MET'MAP, your aeronautical weather chart ! - Copyright ORBIFLY December 2007 - Disclaimer

ORBIFLY MET'MAP TEAM :

Programming & Development : Alexandra Zaïnal
Original concept : Baudouin d'Aumeries
Technical & hardware support : Manuel Goepfert
Assistance : Marc-Olivier Méhu




SOURCES & CREDITS :

   NOAA       Earth
Advisory